sensor_id;sensor_type;location;lat;lon;timestamp;temperature;humidity
67054;SHT31;53960;51.826;5.850;2022-07-04T00:02:08;15.35;80.44
67054;SHT31;53960;51.826;5.850;2022-07-04T00:04:34;15.30;80.57
67054;SHT31;53960;51.826;5.850;2022-07-04T00:06:59;15.28;80.51
67054;SHT31;53960;51.826;5.850;2022-07-04T00:09:24;15.28;80.36
67054;SHT31;53960;51.826;5.850;2022-07-04T00:11:50;15.27;80.43
67054;SHT31;53960;51.826;5.850;2022-07-04T00:14:15;15.21;80.60
67054;SHT31;53960;51.826;5.850;2022-07-04T00:16:40;15.20;80.65
67054;SHT31;53960;51.826;5.850;2022-07-04T00:19:06;15.14;80.67
67054;SHT31;53960;51.826;5.850;2022-07-04T00:21:31;15.08;80.75
67054;SHT31;53960;51.826;5.850;2022-07-04T00:23:56;15.01;80.77
67054;SHT31;53960;51.826;5.850;2022-07-04T00:26:22;14.96;80.87
67054;SHT31;53960;51.826;5.850;2022-07-04T00:28:47;14.87;81.10
67054;SHT31;53960;51.826;5.850;2022-07-04T00:31:13;14.84;81.06
67054;SHT31;53960;51.826;5.850;2022-07-04T00:33:38;14.80;80.99
67054;SHT31;53960;51.826;5.850;2022-07-04T00:36:04;14.81;80.71
67054;SHT31;53960;51.826;5.850;2022-07-04T00:38:29;14.77;80.89
67054;SHT31;53960;51.826;5.850;2022-07-04T00:40:54;14.80;80.68
67054;SHT31;53960;51.826;5.850;2022-07-04T00:43:24;14.80;80.84
67054;SHT31;53960;51.826;5.850;2022-07-04T00:45:50;14.73;81.08
67054;SHT31;53960;51.826;5.850;2022-07-04T00:48:16;14.73;81.10
67054;SHT31;53960;51.826;5.850;2022-07-04T00:50:43;14.79;80.87
67054;SHT31;53960;51.826;5.850;2022-07-04T00:53:09;14.76;80.60
67054;SHT31;53960;51.826;5.850;2022-07-04T00:55:34;14.70;80.61
67054;SHT31;53960;51.826;5.850;2022-07-04T00:57:59;14.65;80.88
67054;SHT31;53960;51.826;5.850;2022-07-04T01:00:25;14.63;80.91
67054;SHT31;53960;51.826;5.850;2022-07-04T01:02:50;14.53;81.17
67054;SHT31;53960;51.826;5.850;2022-07-04T01:05:16;14.46;81.13
67054;SHT31;53960;51.826;5.850;2022-07-04T01:07:42;14.43;81.28
67054;SHT31;53960;51.826;5.850;2022-07-04T01:10:08;14.38;81.44
67054;SHT31;53960;51.826;5.850;2022-07-04T01:12:34;14.36;81.36
67054;SHT31;53960;51.826;5.850;2022-07-04T01:15:00;14.33;81.61
67054;SHT31;53960;51.826;5.850;2022-07-04T01:17:26;14.33;81.84
67054;SHT31;53960;51.826;5.850;2022-07-04T01:19:51;14.30;81.80
67054;SHT31;53960;51.826;5.850;2022-07-04T01:22:17;14.25;81.80
67054;SHT31;53960;51.826;5.850;2022-07-04T01:24:44;14.22;82.01
67054;SHT31;53960;51.826;5.850;2022-07-04T01:27:10;14.19;82.18
67054;SHT31;53960;51.826;5.850;2022-07-04T01:29:35;14.19;82.20
67054;SHT31;53960;51.826;5.850;2022-07-04T01:32:08;14.19;81.88
67054;SHT31;53960;51.826;5.850;2022-07-04T01:34:34;14.11;82.06
67054;SHT31;53960;51.826;5.850;2022-07-04T01:37:00;14.09;82.36
67054;SHT31;53960;51.826;5.850;2022-07-04T01:39:27;14.12;82.33
67054;SHT31;53960;51.826;5.850;2022-07-04T01:41:52;14.12;82.22
67054;SHT31;53960;51.826;5.850;2022-07-04T01:44:18;14.11;82.34
67054;SHT31;53960;51.826;5.850;2022-07-04T01:46:43;14.07;82.42
67054;SHT31;53960;51.826;5.850;2022-07-04T01:49:08;14.11;82.36
67054;SHT31;53960;51.826;5.850;2022-07-04T01:51:34;14.02;82.32
67054;SHT31;53960;51.826;5.850;2022-07-04T01:53:59;13.91;82.87
67054;SHT31;53960;51.826;5.850;2022-07-04T01:56:25;13.91;83.08
67054;SHT31;53960;51.826;5.850;2022-07-04T01:58:50;13.78;83.40
67054;SHT31;53960;51.826;5.850;2022-07-04T02:01:15;13.85;83.35
67054;SHT31;53960;51.826;5.850;2022-07-04T02:04:00;13.88;83.05
67054;SHT31;53960;51.826;5.850;2022-07-04T02:06:26;13.88;83.03
67054;SHT31;53960;51.826;5.850;2022-07-04T02:08:52;13.87;82.83
67054;SHT31;53960;51.826;5.850;2022-07-04T02:11:36;13.87;82.65
67054;SHT31;53960;51.826;5.850;2022-07-04T02:14:21;13.85;82.34
67054;SHT31;53960;51.826;5.850;2022-07-04T02:16:46;13.85;82.44
67054;SHT31;53960;51.826;5.850;2022-07-04T02:19:11;13.81;82.56
67054;SHT31;53960;51.826;5.850;2022-07-04T02:21:37;13.74;82.81
67054;SHT31;53960;51.826;5.850;2022-07-04T02:24:02;13.73;82.69
67054;SHT31;53960;51.826;5.850;2022-07-04T02:26:28;13.73;82.92
67054;SHT31;53960;51.826;5.850;2022-07-04T02:28:53;13.67;83.22
67054;SHT31;53960;51.826;5.850;2022-07-04T02:31:19;13.67;83.22
67054;SHT31;53960;51.826;5.850;2022-07-04T02:33:44;13.70;83.44
67054;SHT31;53960;51.826;5.850;2022-07-04T02:36:09;13.67;83.76
67054;SHT31;53960;51.826;5.850;2022-07-04T02:38:35;13.66;83.74
67054;SHT31;53960;51.826;5.850;2022-07-04T02:41:00;13.63;83.97
67054;SHT31;53960;51.826;5.850;2022-07-04T02:43:25;13.63;84.19
67054;SHT31;53960;51.826;5.850;2022-07-04T02:45:50;13.60;84.41
67054;SHT31;53960;51.826;5.850;2022-07-04T02:48:16;13.59;84.79
67054;SHT31;53960;51.826;5.850;2022-07-04T02:50:41;13.51;84.78
67054;SHT31;53960;51.826;5.850;2022-07-04T02:53:07;13.53;84.56
67054;SHT31;53960;51.826;5.850;2022-07-04T02:55:32;13.51;84.59
67054;SHT31;53960;51.826;5.850;2022-07-04T02:57:57;13.49;84.81
67054;SHT31;53960;51.826;5.850;2022-07-04T03:00:23;13.38;85.26
67054;SHT31;53960;51.826;5.850;2022-07-04T03:02:48;13.40;85.17
67054;SHT31;53960;51.826;5.850;2022-07-04T03:05:13;13.42;85.15
67054;SHT31;53960;51.826;5.850;2022-07-04T03:07:39;13.40;85.18
67054;SHT31;53960;51.826;5.850;2022-07-04T03:10:04;13.44;85.27
67054;SHT31;53960;51.826;5.850;2022-07-04T03:12:29;13.36;85.74
67054;SHT31;53960;51.826;5.850;2022-07-04T03:14:55;13.35;85.67
67054;SHT31;53960;51.826;5.850;2022-07-04T03:17:20;13.33;85.51
67054;SHT31;53960;51.826;5.850;2022-07-04T03:19:46;13.38;85.36
67054;SHT31;53960;51.826;5.850;2022-07-04T03:22:11;13.39;85.30
67054;SHT31;53960;51.826;5.850;2022-07-04T03:24:37;13.40;85.23
67054;SHT31;53960;51.826;5.850;2022-07-04T03:27:02;13.35;85.51
67054;SHT31;53960;51.826;5.850;2022-07-04T03:29:28;13.29;85.79
67054;SHT31;53960;51.826;5.850;2022-07-04T03:31:53;13.32;85.80
67054;SHT31;53960;51.826;5.850;2022-07-04T03:34:18;13.32;85.89
67054;SHT31;53960;51.826;5.850;2022-07-04T03:36:44;13.27;86.07
67054;SHT31;53960;51.826;5.850;2022-07-04T03:39:09;13.27;86.19
67054;SHT31;53960;51.826;5.850;2022-07-04T03:41:34;13.30;85.90
67054;SHT31;53960;51.826;5.850;2022-07-04T03:44:01;13.29;86.00
67054;SHT31;53960;51.826;5.850;2022-07-04T03:46:26;13.36;85.56
67054;SHT31;53960;51.826;5.850;2022-07-04T03:48:53;13.36;85.50
67054;SHT31;53960;51.826;5.850;2022-07-04T03:51:19;13.33;85.68
67054;SHT31;53960;51.826;5.850;2022-07-04T03:53:45;13.27;85.90
67054;SHT31;53960;51.826;5.850;2022-07-04T03:56:10;13.36;85.78
67054;SHT31;53960;51.826;5.850;2022-07-04T03:58:35;13.35;85.75
67054;SHT31;53960;51.826;5.850;2022-07-04T04:01:01;13.43;85.57
67054;SHT31;53960;51.826;5.850;2022-07-04T04:03:26;13.47;85.43
67054;SHT31;53960;51.826;5.850;2022-07-04T04:06:10;13.49;85.56
67054;SHT31;53960;51.826;5.850;2022-07-04T04:08:35;13.47;85.79
67054;SHT31;53960;51.826;5.850;2022-07-04T04:11:01;13.42;86.10
67054;SHT31;53960;51.826;5.850;2022-07-04T04:13:26;13.44;85.89
67054;SHT31;53960;51.826;5.850;2022-07-04T04:15:51;13.53;85.83
67054;SHT31;53960;51.826;5.850;2022-07-04T04:18:16;13.53;85.65
67054;SHT31;53960;51.826;5.850;2022-07-04T04:20:42;13.59;85.67
67054;SHT31;53960;51.826;5.850;2022-07-04T04:23:07;13.61;85.86
67054;SHT31;53960;51.826;5.850;2022-07-04T04:25:32;13.64;85.71
67054;SHT31;53960;51.826;5.850;2022-07-04T04:27:58;13.73;85.50
67054;SHT31;53960;51.826;5.850;2022-07-04T04:30:23;13.74;85.56
67054;SHT31;53960;51.826;5.850;2022-07-04T04:32:48;13.77;85.58
67054;SHT31;53960;51.826;5.850;2022-07-04T04:35:14;13.81;85.47
67054;SHT31;53960;51.826;5.850;2022-07-04T04:37:39;13.87;85.15
67054;SHT31;53960;51.826;5.850;2022-07-04T04:40:05;13.91;85.13
67054;SHT31;53960;51.826;5.850;2022-07-04T04:42:30;13.98;84.79
67054;SHT31;53960;51.826;5.850;2022-07-04T04:44:56;14.01;84.55
67054;SHT31;53960;51.826;5.850;2022-07-04T04:47:21;14.08;84.37
67054;SHT31;53960;51.826;5.850;2022-07-04T04:49:47;14.05;84.47
67054;SHT31;53960;51.826;5.850;2022-07-04T04:52:12;14.09;84.35
67054;SHT31;53960;51.826;5.850;2022-07-04T04:54:37;14.17;84.10
67054;SHT31;53960;51.826;5.850;2022-07-04T04:57:03;14.12;84.24
67054;SHT31;53960;51.826;5.850;2022-07-04T04:59:29;14.18;84.37
67054;SHT31;53960;51.826;5.850;2022-07-04T05:01:55;14.14;84.58
67054;SHT31;53960;51.826;5.850;2022-07-04T05:04:20;14.25;84.35
67054;SHT31;53960;51.826;5.850;2022-07-04T05:06:46;14.29;84.37
67054;SHT31;53960;51.826;5.850;2022-07-04T05:09:11;14.32;84.67
67054;SHT31;53960;51.826;5.850;2022-07-04T05:11:36;14.28;84.92
67054;SHT31;53960;51.826;5.850;2022-07-04T05:14:02;14.32;84.53
67054;SHT31;53960;51.826;5.850;2022-07-04T05:16:27;14.38;84.48
67054;SHT31;53960;51.826;5.850;2022-07-04T05:18:52;14.46;84.32
67054;SHT31;53960;51.826;5.850;2022-07-04T05:21:18;14.53;83.82
67054;SHT31;53960;51.826;5.850;2022-07-04T05:23:43;14.65;83.51
67054;SHT31;53960;51.826;5.850;2022-07-04T05:26:08;14.65;83.48
67054;SHT31;53960;51.826;5.850;2022-07-04T05:28:34;14.69;83.53
67054;SHT31;53960;51.826;5.850;2022-07-04T05:30:59;14.72;83.32
67054;SHT31;53960;51.826;5.850;2022-07-04T05:33:24;14.81;82.70
67054;SHT31;53960;51.826;5.850;2022-07-04T05:35:50;14.88;82.75
67054;SHT31;53960;51.826;5.850;2022-07-04T05:38:15;14.91;82.65
67054;SHT31;53960;51.826;5.850;2022-07-04T05:40:40;14.98;82.52
67054;SHT31;53960;51.826;5.850;2022-07-04T05:43:06;15.06;82.29
67054;SHT31;53960;51.826;5.850;2022-07-04T05:45:31;15.11;82.12
67054;SHT31;53960;51.826;5.850;2022-07-04T05:47:56;15.21;81.76
67054;SHT31;53960;51.826;5.850;2022-07-04T05:50:22;15.18;81.54
67054;SHT31;53960;51.826;5.850;2022-07-04T05:52:47;15.24;81.61
67054;SHT31;53960;51.826;5.850;2022-07-04T05:55:13;15.24;81.93
67054;SHT31;53960;51.826;5.850;2022-07-04T05:57:38;15.34;82.01
67054;SHT31;53960;51.826;5.850;2022-07-04T06:00:04;15.44;81.43
67054;SHT31;53960;51.826;5.850;2022-07-04T06:02:30;15.47;81.48
67054;SHT31;53960;51.826;5.850;2022-07-04T06:04:55;15.54;81.54
67054;SHT31;53960;51.826;5.850;2022-07-04T06:07:21;15.58;81.21
67054;SHT31;53960;51.826;5.850;2022-07-04T06:09:46;15.63;80.90
67054;SHT31;53960;51.826;5.850;2022-07-04T06:12:11;15.63;80.31
67054;SHT31;53960;51.826;5.850;2022-07-04T06:14:37;15.70;80.66
67054;SHT31;53960;51.826;5.850;2022-07-04T06:17:03;15.76;80.31
67054;SHT31;53960;51.826;5.850;2022-07-04T06:19:28;15.83;79.68
67054;SHT31;53960;51.826;5.850;2022-07-04T06:21:53;15.85;80.20
67054;SHT31;53960;51.826;5.850;2022-07-04T06:24:19;15.89;80.10
67054;SHT31;53960;51.826;5.850;2022-07-04T06:26:44;15.96;79.47
67054;SHT31;53960;51.826;5.850;2022-07-04T06:29:09;16.12;79.42
67054;SHT31;53960;51.826;5.850;2022-07-04T06:31:35;16.17;79.26
67054;SHT31;53960;51.826;5.850;2022-07-04T06:34:00;16.24;78.46
67054;SHT31;53960;51.826;5.850;2022-07-04T06:36:45;16.33;77.57
67054;SHT31;53960;51.826;5.850;2022-07-04T06:39:10;16.41;77.67
67054;SHT31;53960;51.826;5.850;2022-07-04T06:41:35;16.51;76.57
67054;SHT31;53960;51.826;5.850;2022-07-04T06:44:01;16.55;75.96
67054;SHT31;53960;51.826;5.850;2022-07-04T06:46:26;16.68;75.85
67054;SHT31;53960;51.826;5.850;2022-07-04T06:48:51;16.81;75.95
67054;SHT31;53960;51.826;5.850;2022-07-04T06:51:17;16.98;75.66
67054;SHT31;53960;51.826;5.850;2022-07-04T06:53:42;17.18;74.77
67054;SHT31;53960;51.826;5.850;2022-07-04T06:56:08;17.37;74.30
67054;SHT31;53960;51.826;5.850;2022-07-04T06:58:33;17.51;74.25
67054;SHT31;53960;51.826;5.850;2022-07-04T07:00:59;17.56;73.43
67054;SHT31;53960;51.826;5.850;2022-07-04T07:03:24;17.53;73.81
67054;SHT31;53960;51.826;5.850;2022-07-04T07:05:50;17.40;73.62
67054;SHT31;53960;51.826;5.850;2022-07-04T07:08:15;17.33;74.14
67054;SHT31;53960;51.826;5.850;2022-07-04T07:10:40;17.42;74.26
67054;SHT31;53960;51.826;5.850;2022-07-04T07:13:06;17.43;73.60
67054;SHT31;53960;51.826;5.850;2022-07-04T07:15:32;17.50;73.96
67054;SHT31;53960;51.826;5.850;2022-07-04T07:18:01;17.54;73.51
67054;SHT31;53960;51.826;5.850;2022-07-04T07:20:26;17.60;73.99
67054;SHT31;53960;51.826;5.850;2022-07-04T07:22:51;17.70;74.21
67054;SHT31;53960;51.826;5.850;2022-07-04T07:25:17;17.84;73.51
67054;SHT31;53960;51.826;5.850;2022-07-04T07:27:42;17.95;73.27
67054;SHT31;53960;51.826;5.850;2022-07-04T07:30:08;18.11;72.93
67054;SHT31;53960;51.826;5.850;2022-07-04T07:32:34;18.29;72.32
67054;SHT31;53960;51.826;5.850;2022-07-04T07:34:59;18.31;72.37
67054;SHT31;53960;51.826;5.850;2022-07-04T07:37:24;18.33;72.73
67054;SHT31;53960;51.826;5.850;2022-07-04T07:39:51;18.29;72.51
67054;SHT31;53960;51.826;5.850;2022-07-04T07:42:16;18.25;72.60
67054;SHT31;53960;51.826;5.850;2022-07-04T07:44:43;18.29;73.55
67054;SHT31;53960;51.826;5.850;2022-07-04T07:47:13;18.42;73.39
67054;SHT31;53960;51.826;5.850;2022-07-04T07:49:41;18.51;73.07
67054;SHT31;53960;51.826;5.850;2022-07-04T07:52:06;18.74;73.63
67054;SHT31;53960;51.826;5.850;2022-07-04T07:54:31;18.77;72.72
67054;SHT31;53960;51.826;5.850;2022-07-04T07:56:57;18.77;72.73
67054;SHT31;53960;51.826;5.850;2022-07-04T07:59:22;18.77;73.53
67054;SHT31;53960;51.826;5.850;2022-07-04T08:01:48;18.72;72.67
67054;SHT31;53960;51.826;5.850;2022-07-04T08:04:14;18.82;72.83
67054;SHT31;53960;51.826;5.850;2022-07-04T08:06:58;18.74;72.18
67054;SHT31;53960;51.826;5.850;2022-07-04T08:09:23;18.87;72.77
67054;SHT31;53960;51.826;5.850;2022-07-04T08:11:48;19.00;71.73
67054;SHT31;53960;51.826;5.850;2022-07-04T08:14:14;19.07;71.93
67054;SHT31;53960;51.826;5.850;2022-07-04T08:16:39;19.03;71.59
67054;SHT31;53960;51.826;5.850;2022-07-04T08:19:06;19.08;71.33
67054;SHT31;53960;51.826;5.850;2022-07-04T08:21:31;19.15;71.40
67054;SHT31;53960;51.826;5.850;2022-07-04T08:23:56;19.24;70.41
67054;SHT31;53960;51.826;5.850;2022-07-04T08:26:22;19.31;70.22
67054;SHT31;53960;51.826;5.850;2022-07-04T08:28:47;19.49;69.91
67054;SHT31;53960;51.826;5.850;2022-07-04T08:31:12;19.52;69.04
67054;SHT31;53960;51.826;5.850;2022-07-04T08:33:37;19.65;69.03
67054;SHT31;53960;51.826;5.850;2022-07-04T08:36:03;19.76;69.96
67054;SHT31;53960;51.826;5.850;2022-07-04T08:38:29;19.71;68.26
67054;SHT31;53960;51.826;5.850;2022-07-04T08:40:56;19.75;68.66
67054;SHT31;53960;51.826;5.850;2022-07-04T08:43:23;19.79;68.03
67054;SHT31;53960;51.826;5.850;2022-07-04T08:45:49;19.92;67.76
67054;SHT31;53960;51.826;5.850;2022-07-04T08:48:15;20.00;67.65
67054;SHT31;53960;51.826;5.850;2022-07-04T08:50:44;20.20;67.78
67054;SHT31;53960;51.826;5.850;2022-07-04T08:53:18;20.36;66.65
67054;SHT31;53960;51.826;5.850;2022-07-04T08:55:46;20.24;66.46
67054;SHT31;53960;51.826;5.850;2022-07-04T08:58:30;20.31;66.59
67054;SHT31;53960;51.826;5.850;2022-07-04T09:01:04;20.27;66.56
67054;SHT31;53960;51.826;5.850;2022-07-04T09:03:30;20.23;66.29
67054;SHT31;53960;51.826;5.850;2022-07-04T09:05:56;20.21;65.99
67054;SHT31;53960;51.826;5.850;2022-07-04T09:08:22;20.19;66.63
67054;SHT31;53960;51.826;5.850;2022-07-04T09:10:49;20.24;66.72
67054;SHT31;53960;51.826;5.850;2022-07-04T09:13:15;20.26;66.84
67054;SHT31;53960;51.826;5.850;2022-07-04T09:15:43;20.34;66.15
67054;SHT31;53960;51.826;5.850;2022-07-04T09:18:38;20.48;66.61
67054;SHT31;53960;51.826;5.850;2022-07-04T09:21:08;20.54;65.98
67054;SHT31;53960;51.826;5.850;2022-07-04T09:23:36;20.55;65.87
67054;SHT31;53960;51.826;5.850;2022-07-04T09:26:14;20.41;64.50
67054;SHT31;53960;51.826;5.850;2022-07-04T09:29:00;20.63;65.57
67054;SHT31;53960;51.826;5.850;2022-07-04T09:31:27;20.81;64.35
67054;SHT31;53960;51.826;5.850;2022-07-04T09:34:11;20.87;64.30
67054;SHT31;53960;51.826;5.850;2022-07-04T09:36:41;20.95;64.26
67054;SHT31;53960;51.826;5.850;2022-07-04T09:39:17;20.89;63.79
67054;SHT31;53960;51.826;5.850;2022-07-04T09:42:01;20.64;63.21
67054;SHT31;53960;51.826;5.850;2022-07-04T09:44:46;20.36;64.35
67054;SHT31;53960;51.826;5.850;2022-07-04T09:47:40;20.30;65.27
67054;SHT31;53960;51.826;5.850;2022-07-04T09:50:18;20.21;65.62
67054;SHT31;53960;51.826;5.850;2022-07-04T09:52:49;20.13;66.39
67054;SHT31;53960;51.826;5.850;2022-07-04T09:55:32;19.99;66.52
67054;SHT31;53960;51.826;5.850;2022-07-04T09:58:03;20.03;67.08
67054;SHT31;53960;51.826;5.850;2022-07-04T10:00:31;20.09;67.05
67054;SHT31;53960;51.826;5.850;2022-07-04T10:02:59;20.19;66.42
67054;SHT31;53960;51.826;5.850;2022-07-04T10:05:40;20.31;66.72
67054;SHT31;53960;51.826;5.850;2022-07-04T10:08:06;20.45;66.97
67054;SHT31;53960;51.826;5.850;2022-07-04T10:10:36;20.67;67.17
67054;SHT31;53960;51.826;5.850;2022-07-04T10:13:07;20.88;65.43
67054;SHT31;53960;51.826;5.850;2022-07-04T10:15:34;21.03;65.08
67054;SHT31;53960;51.826;5.850;2022-07-04T10:18:03;21.23;64.44
67054;SHT31;53960;51.826;5.850;2022-07-04T10:20:29;21.20;66.03
67054;SHT31;53960;51.826;5.850;2022-07-04T10:22:55;21.35;64.50
67054;SHT31;53960;51.826;5.850;2022-07-04T10:25:20;21.58;63.70
67054;SHT31;53960;51.826;5.850;2022-07-04T10:27:46;21.68;64.45
67054;SHT31;53960;51.826;5.850;2022-07-04T10:30:15;21.57;63.56
67054;SHT31;53960;51.826;5.850;2022-07-04T10:32:44;21.36;63.83
67054;SHT31;53960;51.826;5.850;2022-07-04T10:35:15;21.20;64.95
67054;SHT31;53960;51.826;5.850;2022-07-04T10:40:42;20.95;65.12
67054;SHT31;53960;51.826;5.850;2022-07-04T10:45:57;20.95;65.64
67054;SHT31;53960;51.826;5.850;2022-07-04T10:48:31;21.25;66.20
67054;SHT31;53960;51.826;5.850;2022-07-04T10:50:59;21.56;63.76
67054;SHT31;53960;51.826;5.850;2022-07-04T10:53:25;21.64;63.60
67054;SHT31;53960;51.826;5.850;2022-07-04T10:55:50;21.46;63.91
67054;SHT31;53960;51.826;5.850;2022-07-04T10:58:38;21.25;63.76
67054;SHT31;53960;51.826;5.850;2022-07-04T11:01:13;21.12;64.60
67054;SHT31;53960;51.826;5.850;2022-07-04T11:03:52;21.09;65.06
67054;SHT31;53960;51.826;5.850;2022-07-04T11:09:23;21.10;63.70
67054;SHT31;53960;51.826;5.850;2022-07-04T11:11:57;21.10;65.50
67054;SHT31;53960;51.826;5.850;2022-07-04T11:14:35;21.23;65.05
67054;SHT31;53960;51.826;5.850;2022-07-04T11:17:02;21.25;63.81
67054;SHT31;53960;51.826;5.850;2022-07-04T11:19:27;21.23;64.01
67054;SHT31;53960;51.826;5.850;2022-07-04T11:21:54;21.20;62.68
67054;SHT31;53960;51.826;5.850;2022-07-04T11:24:20;21.15;62.81
67054;SHT31;53960;51.826;5.850;2022-07-04T11:26:46;21.12;63.01
67054;SHT31;53960;51.826;5.850;2022-07-04T11:29:14;21.19;62.63
67054;SHT31;53960;51.826;5.850;2022-07-04T11:31:42;21.33;63.32
67054;SHT31;53960;51.826;5.850;2022-07-04T11:34:08;21.43;62.23
67054;SHT31;53960;51.826;5.850;2022-07-04T11:36:33;21.46;61.89
67054;SHT31;53960;51.826;5.850;2022-07-04T11:39:01;21.73;61.00
67054;SHT31;53960;51.826;5.850;2022-07-04T11:41:38;21.84;61.30
67054;SHT31;53960;51.826;5.850;2022-07-04T11:44:28;21.76;62.32
67054;SHT31;53960;51.826;5.850;2022-07-04T11:50:05;21.83;60.82
67054;SHT31;53960;51.826;5.850;2022-07-04T11:52:42;22.08;59.78
67054;SHT31;53960;51.826;5.850;2022-07-04T11:55:10;22.42;59.91
67054;SHT31;53960;51.826;5.850;2022-07-04T11:57:47;22.79;58.23
67054;SHT31;53960;51.826;5.850;2022-07-04T12:00:14;22.87;57.02
67054;SHT31;53960;51.826;5.850;2022-07-04T12:02:40;22.66;56.78
67054;SHT31;53960;51.826;5.850;2022-07-04T12:05:08;22.36;57.97
67054;SHT31;53960;51.826;5.850;2022-07-04T12:07:36;22.21;58.74
67054;SHT31;53960;51.826;5.850;2022-07-04T12:10:13;22.02;58.85
67054;SHT31;53960;51.826;5.850;2022-07-04T12:12:58;22.09;57.77
67054;SHT31;53960;51.826;5.850;2022-07-04T12:15:31;22.04;57.60
67054;SHT31;53960;51.826;5.850;2022-07-04T12:18:01;21.97;56.90
67054;SHT31;53960;51.826;5.850;2022-07-04T12:20:26;21.81;56.69
67054;SHT31;53960;51.826;5.850;2022-07-04T12:22:52;21.74;57.31
67054;SHT31;53960;51.826;5.850;2022-07-04T12:25:32;21.67;58.18
67054;SHT31;53960;51.826;5.850;2022-07-04T12:28:01;21.70;58.11
67054;SHT31;53960;51.826;5.850;2022-07-04T12:30:29;21.88;57.93
67054;SHT31;53960;51.826;5.850;2022-07-04T12:33:07;21.93;58.67
67054;SHT31;53960;51.826;5.850;2022-07-04T12:38:41;22.34;55.43
67054;SHT31;53960;51.826;5.850;2022-07-04T12:41:10;22.22;54.82
67054;SHT31;53960;51.826;5.850;2022-07-04T12:46:28;22.59;53.78
67054;SHT31;53960;51.826;5.850;2022-07-04T12:48:55;22.59;52.85
67054;SHT31;53960;51.826;5.850;2022-07-04T12:51:23;22.57;53.64
67054;SHT31;53960;51.826;5.850;2022-07-04T12:53:51;22.63;51.93
67054;SHT31;53960;51.826;5.850;2022-07-04T12:56:30;22.89;51.61
67054;SHT31;53960;51.826;5.850;2022-07-04T12:58:58;23.08;49.57
67054;SHT31;53960;51.826;5.850;2022-07-04T13:01:24;23.15;50.46
67054;SHT31;53960;51.826;5.850;2022-07-04T13:03:49;23.31;51.49
67054;SHT31;53960;51.826;5.850;2022-07-04T13:06:15;23.17;51.92
67054;SHT31;53960;51.826;5.850;2022-07-04T13:08:40;23.14;51.30
67054;SHT31;53960;51.826;5.850;2022-07-04T13:11:06;23.14;52.31
67054;SHT31;53960;51.826;5.850;2022-07-04T13:13:49;23.23;51.87
67054;SHT31;53960;51.826;5.850;2022-07-04T13:16:15;23.21;51.18
67054;SHT31;53960;51.826;5.850;2022-07-04T13:18:40;23.25;50.53
67054;SHT31;53960;51.826;5.850;2022-07-04T13:21:05;23.51;51.80
67054;SHT31;53960;51.826;5.850;2022-07-04T13:23:31;23.23;51.31
67054;SHT31;53960;51.826;5.850;2022-07-04T13:25:56;23.41;51.24
67054;SHT31;53960;51.826;5.850;2022-07-04T13:28:21;23.55;49.51
67054;SHT31;53960;51.826;5.850;2022-07-04T13:30:47;23.48;50.44
67054;SHT31;53960;51.826;5.850;2022-07-04T13:33:12;23.68;50.45
67054;SHT31;53960;51.826;5.850;2022-07-04T13:35:38;23.78;48.46
67054;SHT31;53960;51.826;5.850;2022-07-04T13:38:03;23.90;48.87
67054;SHT31;53960;51.826;5.850;2022-07-04T13:40:28;23.89;48.96
67054;SHT31;53960;51.826;5.850;2022-07-04T13:42:55;23.92;49.62
67054;SHT31;53960;51.826;5.850;2022-07-04T13:45:24;23.95;49.64
67054;SHT31;53960;51.826;5.850;2022-07-04T13:47:50;23.86;49.20
67054;SHT31;53960;51.826;5.850;2022-07-04T13:50:16;23.86;50.18
67054;SHT31;53960;51.826;5.850;2022-07-04T13:52:41;24.09;48.78
67054;SHT31;53960;51.826;5.850;2022-07-04T13:55:07;24.13;48.13
67054;SHT31;53960;51.826;5.850;2022-07-04T13:57:32;24.19;48.23
67054;SHT31;53960;51.826;5.850;2022-07-04T13:59:58;24.39;49.53
67054;SHT31;53960;51.826;5.850;2022-07-04T14:02:23;24.44;47.13
67054;SHT31;53960;51.826;5.850;2022-07-04T14:04:49;24.41;45.77
67054;SHT31;53960;51.826;5.850;2022-07-04T14:07:14;24.34;44.54
67054;SHT31;53960;51.826;5.850;2022-07-04T14:09:39;23.95;46.11
67054;SHT31;53960;51.826;5.850;2022-07-04T14:12:05;24.02;46.28
67054;SHT31;53960;51.826;5.850;2022-07-04T14:14:30;23.93;47.22
67054;SHT31;53960;51.826;5.850;2022-07-04T14:16:56;24.01;46.78
67054;SHT31;53960;51.826;5.850;2022-07-04T14:19:21;23.99;45.84
67054;SHT31;53960;51.826;5.850;2022-07-04T14:21:47;23.89;46.83
67054;SHT31;53960;51.826;5.850;2022-07-04T14:24:14;23.73;48.05
67054;SHT31;53960;51.826;5.850;2022-07-04T14:26:39;23.65;48.91
67054;SHT31;53960;51.826;5.850;2022-07-04T14:29:04;23.73;47.47
67054;SHT31;53960;51.826;5.850;2022-07-04T14:31:30;23.85;46.83
67054;SHT31;53960;51.826;5.850;2022-07-04T14:33:56;24.02;46.52
67054;SHT31;53960;51.826;5.850;2022-07-04T14:36:21;24.14;45.73
67054;SHT31;53960;51.826;5.850;2022-07-04T14:38:46;24.06;46.51
67054;SHT31;53960;51.826;5.850;2022-07-04T14:41:12;24.01;46.69
67054;SHT31;53960;51.826;5.850;2022-07-04T14:43:41;23.72;48.08
67054;SHT31;53960;51.826;5.850;2022-07-04T14:46:07;23.75;47.62
67054;SHT31;53960;51.826;5.850;2022-07-04T14:48:32;23.95;47.98
67054;SHT31;53960;51.826;5.850;2022-07-04T14:50:58;24.12;47.90
67054;SHT31;53960;51.826;5.850;2022-07-04T14:53:24;24.05;48.77
67054;SHT31;53960;51.826;5.850;2022-07-04T14:55:49;24.16;48.36
67054;SHT31;53960;51.826;5.850;2022-07-04T14:58:15;24.09;47.51
67054;SHT31;53960;51.826;5.850;2022-07-04T15:00:40;23.95;47.45
67054;SHT31;53960;51.826;5.850;2022-07-04T15:03:05;24.06;47.62
67054;SHT31;53960;51.826;5.850;2022-07-04T15:05:30;23.98;47.26
67054;SHT31;53960;51.826;5.850;2022-07-04T15:07:56;24.06;47.40
67054;SHT31;53960;51.826;5.850;2022-07-04T15:10:22;24.23;47.41
67054;SHT31;53960;51.826;5.850;2022-07-04T15:12:48;24.12;46.02
67054;SHT31;53960;51.826;5.850;2022-07-04T15:15:13;24.08;46.19
67054;SHT31;53960;51.826;5.850;2022-07-04T15:17:39;23.99;46.57
67054;SHT31;53960;51.826;5.850;2022-07-04T15:20:05;23.69;47.89
67054;SHT31;53960;51.826;5.850;2022-07-04T15:22:50;23.76;47.61
67054;SHT31;53960;51.826;5.850;2022-07-04T15:25:34;24.06;46.25
67054;SHT31;53960;51.826;5.850;2022-07-04T15:27:59;24.24;46.71
67054;SHT31;53960;51.826;5.850;2022-07-04T15:30:24;24.43;46.54
67054;SHT31;53960;51.826;5.850;2022-07-04T15:32:50;24.44;45.35
67054;SHT31;53960;51.826;5.850;2022-07-04T15:35:15;24.29;46.10
67054;SHT31;53960;51.826;5.850;2022-07-04T15:37:40;24.30;46.18
67054;SHT31;53960;51.826;5.850;2022-07-04T15:40:06;24.39;46.28
67054;SHT31;53960;51.826;5.850;2022-07-04T15:42:32;24.50;47.39
67054;SHT31;53960;51.826;5.850;2022-07-04T15:44:57;24.50;46.31
67054;SHT31;53960;51.826;5.850;2022-07-04T15:47:22;24.40;46.51
67054;SHT31;53960;51.826;5.850;2022-07-04T15:49:48;24.39;46.56